createdAt,value
2018-01-10T00:01:54.982Z,120.30
2018-01-10T00:04:22.536Z,119.60
2018-01-10T00:06:50.057Z,111.60
2018-01-10T00:09:17.622Z,115.10
2018-01-10T00:11:45.150Z,113.77
2018-01-10T00:14:12.639Z,116.97
2018-01-10T00:16:40.157Z,115.10
2018-01-10T00:19:08.568Z,117.03
2018-01-10T00:21:36.062Z,123.80
2018-01-10T00:24:03.554Z,121.40
2018-01-10T00:26:31.075Z,113.17
2018-01-10T00:28:59.174Z,116.23
2018-01-10T00:31:26.714Z,117.87
2018-01-10T00:33:54.201Z,119.43
2018-01-10T00:36:21.690Z,113.70
2018-01-10T00:38:49.210Z,109.13
2018-01-10T00:41:16.694Z,111.70
2018-01-10T00:43:44.212Z,109.10
2018-01-10T00:46:11.777Z,117.53
2018-01-10T00:48:39.295Z,122.27
2018-01-10T00:51:06.788Z,123.20
2018-01-10T00:53:35.075Z,121.07
2018-01-10T00:56:02.558Z,118.07
2018-01-10T00:58:30.073Z,117.13
2018-01-10T01:00:58.343Z,117.93
2018-01-10T01:03:25.862Z,126.00
2018-01-10T01:05:54.590Z,124.37
2018-01-10T01:08:22.136Z,118.40
2018-01-10T01:10:49.700Z,120.27
2018-01-10T01:13:17.242Z,109.97
2018-01-10T01:15:44.727Z,111.00
2018-01-10T01:18:12.205Z,113.20
2018-01-10T01:20:39.731Z,109.67
2018-01-10T01:23:07.224Z,114.30
2018-01-10T01:25:34.721Z,106.10
2018-01-10T01:28:02.986Z,113.93
2018-01-10T01:30:30.514Z,105.70
2018-01-10T01:32:58.011Z,110.80
2018-01-10T01:35:25.565Z,105.50
2018-01-10T01:37:53.087Z,105.57
2018-01-10T01:40:20.617Z,110.43
2018-01-10T01:42:48.100Z,107.20
2018-01-10T01:45:16.381Z,107.03
2018-01-10T01:47:44.626Z,110.40
2018-01-10T01:50:12.146Z,106.70
2018-01-10T01:52:39.630Z,110.70
2018-01-10T01:55:07.163Z,107.17
2018-01-10T01:57:34.661Z,113.20
2018-01-10T02:00:02.190Z,109.57
2018-01-10T02:02:29.679Z,109.83
2018-01-10T02:04:57.323Z,114.90
2018-01-10T02:07:24.808Z,110.03
2018-01-10T02:09:52.288Z,108.10
2018-01-10T02:12:19.793Z,111.33
2018-01-10T02:14:48.093Z,108.03
2018-01-10T02:17:15.590Z,106.30
2018-01-10T02:19:43.118Z,111.50
2018-01-10T02:22:10.611Z,106.40
2018-01-10T02:24:38.149Z,110.97
2018-01-10T02:27:05.711Z,111.23
2018-01-10T02:29:33.206Z,105.93
2018-01-10T02:32:00.691Z,105.70
2018-01-10T02:34:28.222Z,108.50
2018-01-10T02:36:55.700Z,117.70
2018-01-10T02:39:23.186Z,110.47
2018-01-10T02:41:50.705Z,117.40
2018-01-10T02:44:18.253Z,112.67
2018-01-10T02:46:45.744Z,120.90
2018-01-10T02:49:13.246Z,115.73
2018-01-10T02:51:40.774Z,121.43
2018-01-10T02:54:08.257Z,118.73
2018-01-10T02:56:35.803Z,110.90
2018-01-10T02:59:03.280Z,116.97
2018-01-10T03:01:30.766Z,119.80
2018-01-10T03:03:59.057Z,111.07
2018-01-10T03:06:27.311Z,118.07
2018-01-10T03:08:54.830Z,122.37
2018-01-10T03:11:22.562Z,123.10
2018-01-10T03:13:50.834Z,119.70
2018-01-10T03:16:19.085Z,119.43
2018-01-10T03:18:46.603Z,122.47
2018-01-10T03:21:14.096Z,120.70
2018-01-10T03:23:41.614Z,121.23
2018-01-10T03:26:09.907Z,116.00
2018-01-10T03:28:37.417Z,117.70
2018-01-10T03:31:04.894Z,117.80
2018-01-10T03:33:32.464Z,109.17
2018-01-10T03:36:00.019Z,117.37
2018-01-10T03:38:27.529Z,121.40
2018-01-10T03:40:55.071Z,115.93
2018-01-10T03:43:23.313Z,115.27
2018-01-10T03:45:50.855Z,106.73
2018-01-10T03:48:18.336Z,113.77
2018-01-10T03:50:45.842Z,114.77
2018-01-10T03:53:14.129Z,117.67
2018-01-10T03:55:42.387Z,105.10
2018-01-10T03:58:09.915Z,110.20
2018-01-10T04:00:37.400Z,106.17
2018-01-10T04:03:04.930Z,107.67
2018-01-10T04:05:32.422Z,109.33
2018-01-10T04:07:59.911Z,111.33
2018-01-10T04:10:27.434Z,115.00
2018-01-10T04:12:54.920Z,116.03
2018-01-10T04:15:22.464Z,110.97
2018-01-10T04:17:50.010Z,121.40
2018-01-10T04:20:17.518Z,115.90
2018-01-10T04:22:45.060Z,122.90
2018-01-10T04:25:12.575Z,115.70
2018-01-10T04:27:40.818Z,119.67
2018-01-10T04:30:08.350Z,117.50
2018-01-10T04:32:35.842Z,116.40
2018-01-10T04:35:03.370Z,114.00
2018-01-10T04:37:30.903Z,116.67
2018-01-10T04:39:59.155Z,109.13
2018-01-10T04:42:26.646Z,112.20
2018-01-10T04:44:54.941Z,116.10
2018-01-10T04:47:22.606Z,108.70
2018-01-10T04:49:50.854Z,110.20
2018-01-10T04:52:18.341Z,106.27
2018-01-10T04:54:46.662Z,104.80
2018-01-10T04:57:14.162Z,104.77
2018-01-10T04:59:41.650Z,100.07
2018-01-10T05:02:09.950Z,105.37
2018-01-10T05:04:37.482Z,107.50
2018-01-10T05:07:05.739Z,106.37
2018-01-10T05:09:33.456Z,100.13
2018-01-10T05:12:00.940Z,105.60
2018-01-10T05:14:28.438Z,102.77
2018-01-10T05:16:55.958Z,100.30
2018-01-10T05:19:23.483Z,111.87
2018-01-10T05:21:51.741Z,104.23
2018-01-10T05:24:19.266Z,104.13
2018-01-10T05:26:46.779Z,104.33
2018-01-10T05:29:14.278Z,102.30
2018-01-10T05:31:41.800Z,107.97
2018-01-10T05:34:09.314Z,99.67
2018-01-10T05:36:36.821Z,97.07
2018-01-10T05:39:04.351Z,101.50
2018-01-10T05:41:31.847Z,103.03
2018-01-10T05:43:59.326Z,98.60
2018-01-10T05:46:26.838Z,100.00
2018-01-10T05:48:54.328Z,96.83
2018-01-10T05:51:21.848Z,99.40
2018-01-10T05:53:49.370Z,100.07
2018-01-10T05:56:16.909Z,97.30
2018-01-10T05:58:44.430Z,113.83
2018-01-10T06:01:12.678Z,94.83
2018-01-10T06:03:40.157Z,97.77
2018-01-10T06:06:08.437Z,98.17
2018-01-10T06:08:36.742Z,97.00
2018-01-10T06:11:04.230Z,101.87
2018-01-10T06:13:31.711Z,100.63
2018-01-10T06:15:59.249Z,94.93
2018-01-10T06:18:26.726Z,93.37
2018-01-10T06:20:54.236Z,92.90
2018-01-10T06:23:22.533Z,95.93
2018-01-10T06:25:50.029Z,94.87
2018-01-10T06:28:17.525Z,92.90
2018-01-10T06:30:45.046Z,100.87
2018-01-10T06:33:12.586Z,106.03
2018-01-10T06:35:40.163Z,101.53
2018-01-10T06:38:07.664Z,91.37
2018-01-10T06:40:35.224Z,98.63
2018-01-10T06:43:02.697Z,93.33
2018-01-10T06:45:30.237Z,93.57
2018-01-10T06:47:57.766Z,95.80
2018-01-10T06:50:25.250Z,97.20
2018-01-10T06:52:52.786Z,96.07
2018-01-10T06:55:21.084Z,97.50
2018-01-10T06:57:48.629Z,96.97
2018-01-10T07:00:16.928Z,98.30
2018-01-10T07:02:44.420Z,97.47
2018-01-10T07:05:11.906Z,96.67
2018-01-10T07:07:39.431Z,100.87
2018-01-10T07:10:06.948Z,99.00
2018-01-10T07:12:34.479Z,101.60
2018-01-10T07:15:01.965Z,99.43
2018-01-10T07:17:29.510Z,95.10
2018-01-10T07:19:56.996Z,97.50
2018-01-10T07:22:24.508Z,104.07
2018-01-10T07:24:51.989Z,102.67
2018-01-10T07:27:19.525Z,102.67
2018-01-10T07:29:47.006Z,95.33
2018-01-10T07:32:14.519Z,97.57
2018-01-10T07:34:42.172Z,101.23
2018-01-10T07:37:09.695Z,103.97
2018-01-10T07:39:37.198Z,100.27
2018-01-10T07:42:04.710Z,103.97
2018-01-10T07:44:32.216Z,109.50
2018-01-10T07:46:59.741Z,100.03
2018-01-10T07:49:27.232Z,103.60
2018-01-10T07:51:54.718Z,109.63
2018-01-10T07:54:22.265Z,109.60
2018-01-10T07:56:49.806Z,85.27
2018-01-10T07:59:17.326Z,85.13
2018-01-10T08:01:46.203Z,82.17
2018-01-10T08:04:13.693Z,86.47
2018-01-10T08:06:41.220Z,87.03
2018-01-10T08:09:08.729Z,84.40
2018-01-10T08:11:36.247Z,87.53
2018-01-10T08:14:03.733Z,81.73
2018-01-10T08:16:32.019Z,89.50
2018-01-10T08:19:00.271Z,86.57
2018-01-10T08:21:28.690Z,85.37
2018-01-10T08:23:56.973Z,83.50
2018-01-10T08:26:25.281Z,86.30
2018-01-10T08:28:52.794Z,86.80
2018-01-10T08:31:20.323Z,87.13
2018-01-10T08:33:47.829Z,93.57
2018-01-10T08:36:15.326Z,88.63
2018-01-10T08:38:42.846Z,88.77
2018-01-10T08:41:10.352Z,88.13
2018-01-10T08:43:37.878Z,87.87
2018-01-10T08:46:05.353Z,90.83
2018-01-10T08:48:33.646Z,86.57
2018-01-10T08:51:01.201Z,86.70
2018-01-10T08:53:29.570Z,85.57
2018-01-10T08:55:57.874Z,83.63
2018-01-10T08:58:25.390Z,86.40
2018-01-10T09:00:52.899Z,86.50
2018-01-10T09:03:20.395Z,85.97
2018-01-10T09:05:47.908Z,88.77
2018-01-10T09:08:15.430Z,83.30
2018-01-10T09:10:42.918Z,84.07
2018-01-10T09:13:10.444Z,83.70
2018-01-10T09:15:37.974Z,84.50
2018-01-10T09:18:06.234Z,82.17
2018-01-10T09:20:33.836Z,83.77
2018-01-10T09:23:01.362Z,80.70
2018-01-10T09:25:28.878Z,80.70
2018-01-10T09:27:56.407Z,80.60
2018-01-10T09:30:24.657Z,82.57
2018-01-10T09:32:52.160Z,81.03
2018-01-10T09:35:19.698Z,78.47
2018-01-10T09:37:47.181Z,80.40
2018-01-10T09:40:15.442Z,77.30
2018-01-10T09:42:42.971Z,77.70
2018-01-10T09:45:10.461Z,76.60
2018-01-10T09:47:38.002Z,76.17
2018-01-10T09:50:05.519Z,79.83
2018-01-10T09:52:33.061Z,79.37
2018-01-10T09:55:00.546Z,75.73
2018-01-10T09:57:29.525Z,74.57
2018-01-10T09:59:57.834Z,74.93
2018-01-10T10:02:25.327Z,77.77
2018-01-10T10:04:52.846Z,77.53
2018-01-10T10:07:21.136Z,75.57
2018-01-10T10:09:48.654Z,73.50
2018-01-10T10:12:16.168Z,76.90
2018-01-10T10:14:43.662Z,76.27
2018-01-10T10:17:11.175Z,80.77
2018-01-10T10:19:39.463Z,77.60
2018-01-10T10:22:06.978Z,76.57
2018-01-10T10:24:34.473Z,75.87
2018-01-10T10:27:02.859Z,79.47
2018-01-10T10:29:31.178Z,75.80
2018-01-10T10:31:58.674Z,77.60
2018-01-10T10:34:26.193Z,79.87
2018-01-10T10:36:53.738Z,76.47
2018-01-10T10:39:22.002Z,90.93
2018-01-10T10:41:49.538Z,77.17
2018-01-10T10:44:17.233Z,76.67
2018-01-10T10:46:44.790Z,79.53
2018-01-10T10:49:12.277Z,74.70
2018-01-10T10:51:40.531Z,73.53
2018-01-10T10:54:08.096Z,73.37
2018-01-10T10:56:35.588Z,76.47
2018-01-10T10:59:03.078Z,72.70
2018-01-10T11:01:30.626Z,73.53
2018-01-10T11:03:58.113Z,72.30
2018-01-10T11:06:25.605Z,73.50
2018-01-10T11:08:53.139Z,71.70
2018-01-10T11:11:20.623Z,77.80
2018-01-10T11:13:48.249Z,74.63
2018-01-10T11:16:15.734Z,71.57
2018-01-10T11:18:43.308Z,73.60
2018-01-10T11:21:10.832Z,72.57
2018-01-10T11:23:38.338Z,73.57
2018-01-10T11:26:05.873Z,74.30
2018-01-10T11:28:33.418Z,72.60
2018-01-10T11:31:00.918Z,74.23
2018-01-10T11:33:28.470Z,71.37
2018-01-10T11:35:55.968Z,68.70
2018-01-10T11:38:23.458Z,72.83
2018-01-10T11:40:51.741Z,71.87
2018-01-10T11:43:20.100Z,74.10
2018-01-10T11:45:47.578Z,70.00
2018-01-10T11:48:15.878Z,74.27
2018-01-10T11:50:44.126Z,67.37
2018-01-10T11:53:11.608Z,70.93
2018-01-10T11:55:39.898Z,68.47
2018-01-10T11:58:07.437Z,65.90
2018-01-10T12:00:35.702Z,65.40
2018-01-10T12:03:03.199Z,66.23
2018-01-10T12:05:31.502Z,68.30
2018-01-10T12:07:58.988Z,65.50
2018-01-10T12:10:26.490Z,67.70
2018-01-10T12:12:54.028Z,68.80
2018-01-10T12:15:21.734Z,65.93
2018-01-10T12:17:49.984Z,67.00
2018-01-10T12:20:17.487Z,71.10
2018-01-10T12:22:45.778Z,68.87
2018-01-10T12:25:13.291Z,66.53
2018-01-10T12:27:40.798Z,69.07
2018-01-10T12:30:08.347Z,68.77
2018-01-10T12:32:36.621Z,68.43
2018-01-10T12:35:04.156Z,67.77
2018-01-10T12:37:31.649Z,66.23
2018-01-10T12:39:59.162Z,64.87
2018-01-10T12:42:26.813Z,65.47
2018-01-10T12:44:54.440Z,65.63
2018-01-10T12:47:21.963Z,65.17
2018-01-10T12:49:50.269Z,65.27
2018-01-10T12:52:17.762Z,66.33
2018-01-10T12:54:46.046Z,67.20
2018-01-10T12:57:14.310Z,66.43
2018-01-10T12:59:41.860Z,65.27
2018-01-10T13:02:09.330Z,64.67
2018-01-10T13:04:36.822Z,64.97
2018-01-10T13:07:04.347Z,66.33
2018-01-10T13:09:31.827Z,66.07
2018-01-10T13:11:59.336Z,67.47
2018-01-10T13:14:26.874Z,68.07
2018-01-10T13:16:55.126Z,67.10
2018-01-10T13:19:22.651Z,68.17
2018-01-10T13:21:50.165Z,68.30
2018-01-10T13:24:17.690Z,71.47
2018-01-10T13:26:45.204Z,69.70
2018-01-10T13:29:13.457Z,69.67
2018-01-10T13:31:40.966Z,73.13
2018-01-10T13:34:08.453Z,70.63
2018-01-10T13:36:35.958Z,69.03
2018-01-10T13:39:03.521Z,68.67
2018-01-10T13:41:31.007Z,72.37
2018-01-10T13:43:59.298Z,69.77
2018-01-10T13:46:26.777Z,70.40
2018-01-10T13:48:54.294Z,71.30
2018-01-10T13:51:21.809Z,66.80
2018-01-10T13:53:49.306Z,67.07
2018-01-10T13:56:16.850Z,68.67
2018-01-10T13:58:44.330Z,70.37
2018-01-10T14:01:11.836Z,69.20
2018-01-10T14:03:39.345Z,68.27
2018-01-10T14:06:06.845Z,67.60
2018-01-10T14:08:35.132Z,67.40
2018-01-10T14:11:03.388Z,69.67
2018-01-10T14:13:30.922Z,67.70
2018-01-10T14:15:58.437Z,71.20
2018-01-10T14:18:26.688Z,71.27
2018-01-10T14:20:54.210Z,73.80
2018-01-10T14:23:21.697Z,71.20
2018-01-10T14:25:49.224Z,71.50
2018-01-10T14:28:16.706Z,71.80
2018-01-10T14:30:44.182Z,69.27
2018-01-10T14:33:11.706Z,75.63
2018-01-10T14:35:39.204Z,76.20
2018-01-10T14:38:06.730Z,73.50
2018-01-10T14:40:34.220Z,80.20
2018-01-10T14:43:01.754Z,77.63
2018-01-10T14:45:30.006Z,74.77
2018-01-10T14:47:57.485Z,75.60
2018-01-10T14:50:25.832Z,75.60
2018-01-10T14:52:53.289Z,84.33
2018-01-10T14:55:20.777Z,72.50
2018-01-10T14:57:48.304Z,80.90
2018-01-10T15:00:15.843Z,83.00
2018-01-10T15:02:43.332Z,76.07
2018-01-10T15:05:10.850Z,76.90
2018-01-10T15:07:39.116Z,73.00
2018-01-10T15:10:06.652Z,75.13
2018-01-10T15:12:34.170Z,79.57
2018-01-10T15:15:01.678Z,78.47
2018-01-10T15:17:29.205Z,80.43
2018-01-10T15:19:56.699Z,78.87
2018-01-10T15:22:24.226Z,77.33
2018-01-10T15:24:51.746Z,84.13
2018-01-10T15:27:19.230Z,79.10
2018-01-10T15:29:47.522Z,74.37
2018-01-10T15:32:15.770Z,82.87
2018-01-10T15:34:43.302Z,81.20
2018-01-10T15:37:10.782Z,78.33
2018-01-10T15:39:38.276Z,79.50
2018-01-10T15:42:05.779Z,80.37
2018-01-10T15:44:33.313Z,76.70
2018-01-10T15:47:01.578Z,81.30
2018-01-10T15:49:29.066Z,77.77
2018-01-10T15:51:57.374Z,80.73
2018-01-10T15:54:24.891Z,77.07
2018-01-10T15:56:53.163Z,79.07
2018-01-10T15:59:20.682Z,89.20
2018-01-10T16:01:48.182Z,79.07
2018-01-10T16:04:15.693Z,79.50
2018-01-10T16:06:43.215Z,81.27
2018-01-10T16:09:10.730Z,80.87
2018-01-10T16:11:38.257Z,82.07
2018-01-10T16:14:06.500Z,84.83
2018-01-10T16:16:34.024Z,82.53
2018-01-10T16:19:01.570Z,88.63
2018-01-10T16:21:29.830Z,87.07
2018-01-10T16:23:57.324Z,90.07
2018-01-10T16:26:24.842Z,83.10
2018-01-10T16:28:52.361Z,82.87
2018-01-10T16:31:19.895Z,84.30
2018-01-10T16:33:47.419Z,85.83
2018-01-10T16:36:14.906Z,86.80
2018-01-10T16:38:42.414Z,87.67
2018-01-10T16:41:09.926Z,88.57
2018-01-10T16:43:37.421Z,86.23
2018-01-10T16:46:05.711Z,98.20
2018-01-10T16:48:33.218Z,89.10
2018-01-10T16:51:00.735Z,93.63
2018-01-10T16:53:28.990Z,93.20
2018-01-10T16:55:56.480Z,96.63
2018-01-10T16:58:24.764Z,93.53
2018-01-10T17:00:52.254Z,92.93
2018-01-10T17:03:19.762Z,88.70
2018-01-10T17:05:47.250Z,90.10
2018-01-10T17:08:14.778Z,89.87
2018-01-10T17:10:42.265Z,90.23
2018-01-10T17:13:10.551Z,88.70
2018-01-10T17:15:38.831Z,90.63
2018-01-10T17:18:07.120Z,86.90
2018-01-10T17:20:34.606Z,87.20
2018-01-10T17:23:02.093Z,89.43
2018-01-10T17:25:29.618Z,91.00
2018-01-10T17:27:57.094Z,94.20
2018-01-10T17:30:24.587Z,91.20
2018-01-10T17:32:52.293Z,99.03
2018-01-10T17:35:20.560Z,89.30
2018-01-10T17:37:48.823Z,92.33
2018-01-10T17:40:16.360Z,90.00
2018-01-10T17:42:43.855Z,94.03
2018-01-10T17:45:11.351Z,88.17
2018-01-10T17:47:38.881Z,88.43
2018-01-10T17:50:06.379Z,86.80
2018-01-10T17:52:33.876Z,87.93
2018-01-10T17:55:01.493Z,89.83
2018-01-10T17:57:29.738Z,94.50
2018-01-10T17:59:57.221Z,90.93
2018-01-10T18:02:24.734Z,94.63
2018-01-10T18:04:52.211Z,92.77
2018-01-10T18:07:19.734Z,93.00
2018-01-10T18:09:48.018Z,93.50
2018-01-10T18:12:16.271Z,95.47
2018-01-10T18:14:43.782Z,198.77
2018-01-10T18:17:11.309Z,102.60
2018-01-10T18:19:39.558Z,133.13
2018-01-10T18:22:07.084Z,101.67
2018-01-10T18:24:34.568Z,110.33
2018-01-10T18:27:02.153Z,105.93
2018-01-10T18:29:29.671Z,100.13
2018-01-10T18:31:57.214Z,100.77
2018-01-10T18:34:25.485Z,88.60
2018-01-10T18:36:52.968Z,94.87
2018-01-10T18:39:20.491Z,92.80
2018-01-10T18:41:47.989Z,106.77
2018-01-10T18:44:16.274Z,92.80
2018-01-10T18:46:44.551Z,94.53
2018-01-10T18:49:12.850Z,97.23
2018-01-10T18:51:40.401Z,100.30
2018-01-10T18:54:08.649Z,107.53
2018-01-10T18:56:36.170Z,100.10
2018-01-10T18:59:03.678Z,234.00
2018-01-10T19:01:31.195Z,182.70
2018-01-10T19:03:58.694Z,182.83
2018-01-10T19:06:26.208Z,177.50
2018-01-10T19:08:53.700Z,146.13
2018-01-10T19:11:21.216Z,104.00
2018-01-10T19:13:49.490Z,97.93
2018-01-10T19:16:17.786Z,100.73
2018-01-10T19:18:45.285Z,98.67
2018-01-10T19:21:12.818Z,106.37
2018-01-10T19:23:40.306Z,100.50
2018-01-10T19:26:07.807Z,100.17
2018-01-10T19:28:35.336Z,105.67
2018-01-10T19:31:02.827Z,104.27
2018-01-10T19:33:30.357Z,106.17
2018-01-10T19:35:57.848Z,100.43
2018-01-10T19:38:25.334Z,102.23
2018-01-10T19:40:52.852Z,99.47
2018-01-10T19:43:20.343Z,96.87
2018-01-10T19:45:47.874Z,103.83
2018-01-10T19:48:15.358Z,100.20
2018-01-10T19:50:42.881Z,112.00
2018-01-10T19:53:10.395Z,96.97
2018-01-10T19:55:37.920Z,98.70
2018-01-10T19:58:05.397Z,99.73
2018-01-10T20:00:32.973Z,97.20
2018-01-10T20:03:00.459Z,98.70
2018-01-10T20:05:27.949Z,102.43
2018-01-10T20:07:55.478Z,102.43
2018-01-10T20:10:22.963Z,99.70
2018-01-10T20:12:51.263Z,101.47
2018-01-10T20:15:18.759Z,106.00
2018-01-10T20:17:46.247Z,105.10
2018-01-10T20:20:13.769Z,101.27
2018-01-10T20:22:41.273Z,109.23
2018-01-10T20:25:08.813Z,103.87
2018-01-10T20:27:36.295Z,99.63
2018-01-10T20:30:03.810Z,104.80
2018-01-10T20:32:31.296Z,105.17
2018-01-10T20:34:58.833Z,108.77
2018-01-10T20:37:26.315Z,102.20
2018-01-10T20:39:53.819Z,104.40
2018-01-10T20:42:21.528Z,107.53
2018-01-10T20:44:49.058Z,108.03
2018-01-10T20:47:16.554Z,106.43
2018-01-10T20:49:44.076Z,108.70
2018-01-10T20:52:11.589Z,103.53
2018-01-10T20:54:39.074Z,103.10
2018-01-10T20:57:06.631Z,103.63
2018-01-10T20:59:35.062Z,103.47
2018-01-10T21:02:02.561Z,115.87
2018-01-10T21:04:30.103Z,107.67
2018-01-10T21:06:59.192Z,104.17
2018-01-10T21:09:27.443Z,105.33
2018-01-10T21:11:54.976Z,148.40
2018-01-10T21:14:22.467Z,95.57
2018-01-10T21:16:49.993Z,91.27
2018-01-10T21:19:17.483Z,92.57
2018-01-10T21:21:45.096Z,92.40
2018-01-10T21:24:13.348Z,96.20
2018-01-10T21:26:40.836Z,94.20
2018-01-10T21:29:09.121Z,100.10
2018-01-10T21:31:37.370Z,100.70
2018-01-10T21:34:04.897Z,91.90
2018-01-10T21:36:32.377Z,97.53
2018-01-10T21:38:59.859Z,93.10
2018-01-10T21:41:27.382Z,93.70
2018-01-10T21:43:54.878Z,92.90
2018-01-10T21:46:22.368Z,92.57
2018-01-10T21:48:49.891Z,93.83
2018-01-10T21:51:17.414Z,86.60
2018-01-10T21:53:45.674Z,98.00
2018-01-10T21:56:13.155Z,92.67
2018-01-10T21:58:41.427Z,95.20
2018-01-10T22:01:09.706Z,97.80
2018-01-10T22:03:37.972Z,100.10
2018-01-10T22:06:05.463Z,107.57
2018-01-10T22:08:32.986Z,106.50
2018-01-10T22:11:00.492Z,99.70
2018-01-10T22:13:28.011Z,99.40
2018-01-10T22:15:55.512Z,105.50
2018-01-10T22:18:23.797Z,93.77
2018-01-10T22:20:52.064Z,94.60
2018-01-10T22:23:20.374Z,93.07
2018-01-10T22:25:47.898Z,94.40
2018-01-10T22:28:15.383Z,97.10
2018-01-10T22:30:42.863Z,95.30
2018-01-10T22:33:10.393Z,91.97
2018-01-10T22:35:38.642Z,97.97
2018-01-10T22:38:06.148Z,94.43
2018-01-10T22:40:34.448Z,94.00
2018-01-10T22:43:01.938Z,95.60
2018-01-10T22:45:29.434Z,106.33
2018-01-10T22:47:56.966Z,98.80
2018-01-10T22:50:24.450Z,97.90
2018-01-10T22:52:51.946Z,98.17
2018-01-10T22:55:20.228Z,101.80
2018-01-10T22:57:47.713Z,104.50
2018-01-10T23:00:15.227Z,101.00
2018-01-10T23:02:42.714Z,98.20
2018-01-10T23:05:10.999Z,102.83
2018-01-10T23:07:38.489Z,104.30
2018-01-10T23:10:06.003Z,101.63
2018-01-10T23:12:33.519Z,103.27
2018-01-10T23:15:01.049Z,101.97
2018-01-10T23:17:29.295Z,95.97
2018-01-10T23:19:56.819Z,100.50
2018-01-10T23:22:24.341Z,101.60
2018-01-10T23:24:51.807Z,99.47
2018-01-10T23:27:20.096Z,98.00
2018-01-10T23:29:48.337Z,100.67
2018-01-10T23:32:15.959Z,99.30
2018-01-10T23:34:43.473Z,93.53
2018-01-10T23:37:10.985Z,96.50
2018-01-10T23:39:38.477Z,93.27
2018-01-10T23:42:06.015Z,91.10
2018-01-10T23:44:33.533Z,94.67
2018-01-10T23:47:01.052Z,93.90
2018-01-10T23:49:28.525Z,93.73
2018-01-10T23:51:56.046Z,91.50
2018-01-10T23:54:24.290Z,92.40
2018-01-10T23:56:51.803Z,100.60
2018-01-10T23:59:19.314Z,105.37
